Time,TemperatureF,DewpointF,PressureIn,WindDirection,WindDirectionDegrees,WindSpeedMPH,WindSpeedGustMPH,Humidity,HourlyPrecipIn,Conditions,Clouds,dailyrainin,SoftwareType,DateUTC
2013-02-02 00:01:00,54.4,42.1,30.20,ESE,120,1.0,2.0,63,0.00,,,0.00,Wunderground v.1.15,2013-02-02 07:01:00,
2013-02-02 00:06:00,54.6,41.8,30.20,ESE,105,0.0,2.0,62,0.00,,,0.00,Wunderground v.1.15,2013-02-02 07:06:00,
2013-02-02 00:11:00,54.9,42.1,30.20,ESE,106,1.0,1.0,62,0.00,,,0.00,Wunderground v.1.15,2013-02-02 07:11:00,
2013-02-02 00:16:00,54.7,41.9,30.20,East,87,0.0,2.0,62,0.00,,,0.00,Wunderground v.1.15,2013-02-02 07:16:00,
2013-02-02 00:21:00,54.6,41.8,30.20,East,99,1.0,1.0,62,0.00,,,0.00,Wunderground v.1.15,2013-02-02 07:21:00,
2013-02-02 00:26:00,54.4,42.1,30.20,ESE,108,2.0,2.0,63,0.00,,,0.00,Wunderground v.1.15,2013-02-02 07:26:00,
2013-02-02 00:31:00,54.6,41.8,30.20,East,87,1.0,1.0,62,0.00,,,0.00,Wunderground v.1.15,2013-02-02 07:31:00,
2013-02-02 00:36:00,54.6,41.4,30.21,East,98,0.0,1.0,61,0.00,,,0.00,Wunderground v.1.15,2013-02-02 07:36:00,
2013-02-02 00:41:00,54.2,41.5,30.20,ENE,68,1.0,1.0,62,0.00,,,0.00,Wunderground v.1.15,2013-02-02 07:41:00,
2013-02-02 00:46:00,54.0,41.3,30.20,ENE,60,0.0,1.0,62,0.00,,,0.00,Wunderground v.1.15,2013-02-02 07:46:00,
2013-02-02 00:51:00,53.6,41.7,30.20,ENE,59,0.0,0.0,64,0.00,,,0.00,Wunderground v.1.15,2013-02-02 07:51:00,
2013-02-02 00:56:00,52.7,41.3,30.20,ENE,60,0.0,0.0,65,0.00,,,0.00,Wunderground v.1.15,2013-02-02 07:56:00,
2013-02-02 01:05:00,49.7,41.4,30.20,WNW,295,1.0,1.0,73,0.00,,,0.00,Wunderground v.1.15,2013-02-02 08:05:00,
2013-02-02 01:11:00,48.5,39.5,30.21,NW,318,1.0,1.0,71,0.00,,,0.00,Wunderground v.1.15,2013-02-02 08:11:00,
2013-02-02 01:16:00,47.9,39.3,30.21,North,353,0.0,1.0,72,0.00,,,0.00,Wunderground v.1.15,2013-02-02 08:16:00,
2013-02-02 01:21:00,47.5,39.3,30.21,North,352,0.0,0.0,73,0.00,,,0.00,Wunderground v.1.15,2013-02-02 08:21:00,
2013-02-02 01:26:00,47.2,39.3,30.21,North,353,0.0,0.0,74,0.00,,,0.00,Wunderground v.1.15,2013-02-02 08:26:00,
2013-02-02 01:31:00,47.0,39.5,30.21,North,352,0.0,0.0,75,0.00,,,0.00,Wunderground v.1.15,2013-02-02 08:31:00,
2013-02-02 01:36:00,46.9,39.4,30.21,North,352,0.0,0.0,75,0.00,,,0.00,Wunderground v.1.15,2013-02-02 08:36:00,
2013-02-02 01:42:00,46.7,39.5,30.21,NE,53,0.0,0.0,76,0.00,,,0.00,Wunderground v.1.15,2013-02-02 08:42:00,
2013-02-02 01:47:00,47.0,40.2,30.21,East,91,0.0,0.0,77,0.00,,,0.00,Wunderground v.1.15,2013-02-02 08:47:00,
2013-02-02 01:52:00,47.2,40.4,30.21,East,90,0.0,0.0,77,0.00,,,0.00,Wunderground v.1.15,2013-02-02 08:52:00,
2013-02-02 01:57:00,47.4,40.9,30.21,ENE,70,0.0,0.0,78,0.00,,,0.00,Wunderground v.1.15,2013-02-02 08:57:00,
2013-02-02 02:02:00,47.7,40.8,30.21,ENE,78,0.0,1.0,77,0.00,,,0.00,Wunderground v.1.15,2013-02-02 09:02:00,
2013-02-02 02:08:00,48.1,40.9,30.21,ENE,71,1.0,1.0,76,0.00,,,0.00,Wunderground v.1.15,2013-02-02 09:08:00,
2013-02-02 02:13:00,48.5,41.3,30.21,ENE,73,1.0,1.0,76,0.00,,,0.00,Wunderground v.1.15,2013-02-02 09:13:00,
2013-02-02 02:18:00,48.9,41.3,30.21,ENE,59,0.0,1.0,75,0.00,,,0.00,Wunderground v.1.15,2013-02-02 09:18:00,
2013-02-02 02:23:00,49.1,41.2,30.21,ENE,78,0.0,1.0,74,0.00,,,0.00,Wunderground v.1.15,2013-02-02 09:23:00,
2013-02-02 02:28:00,49.1,41.5,30.21,ESE,116,1.0,1.0,75,0.00,,,0.00,Wunderground v.1.15,2013-02-02 09:28:00,
2013-02-02 02:33:00,49.1,41.9,30.21,East,98,0.0,0.0,76,0.00,,,0.00,Wunderground v.1.15,2013-02-02 09:33:00,
2013-02-02 02:38:00,49.2,42.0,30.21,ESE,113,0.0,0.0,76,0.00,,,0.00,Wunderground v.1.15,2013-02-02 09:38:00,
2013-02-02 02:43:00,48.8,41.9,30.20,ESE,110,1.0,1.0,77,0.00,,,0.00,Wunderground v.1.15,2013-02-02 09:43:00,
2013-02-02 02:49:00,48.9,42.0,30.20,East,98,1.0,1.0,77,0.00,,,0.00,Wunderground v.1.15,2013-02-02 09:49:00,
2013-02-02 02:54:00,48.6,42.0,30.20,East,95,2.0,2.0,78,0.00,,,0.00,Wunderground v.1.15,2013-02-02 09:54:00,
2013-02-02 02:59:00,48.9,41.7,30.20,ENE,72,2.0,2.0,76,0.00,,,0.00,Wunderground v.1.15,2013-02-02 09:59:00,
2013-02-02 03:04:00,50.0,42.0,30.20,ENE,59,1.0,2.0,74,0.00,,,0.00,Wunderground v.1.15,2013-02-02 10:04:00,
2013-02-02 03:09:00,50.5,41.8,30.20,ENE,68,0.0,2.0,72,0.00,,,0.00,Wunderground v.1.15,2013-02-02 10:09:00,
2013-02-02 03:14:00,50.6,41.5,30.20,NE,53,0.0,1.0,71,0.00,,,0.00,Wunderground v.1.15,2013-02-02 10:14:00,
2013-02-02 03:19:00,50.3,41.6,30.20,North,8,0.0,1.0,72,0.00,,,0.00,Wunderground v.1.15,2013-02-02 10:19:00,
2013-02-02 03:24:00,50.2,41.9,30.20,ENE,68,0.0,1.0,73,0.00,,,0.00,Wunderground v.1.15,2013-02-02 10:24:00,
2013-02-02 03:29:00,50.2,41.9,30.20,NE,53,0.0,1.0,73,0.00,,,0.00,Wunderground v.1.15,2013-02-02 10:29:00,
2013-02-02 03:34:00,50.0,41.7,30.20,NE,53,0.0,0.0,73,0.00,,,0.00,Wunderground v.1.15,2013-02-02 10:34:00,
2013-02-02 03:39:00,49.7,41.7,30.20,North,1,0.0,0.0,74,0.00,,,0.00,Wunderground v.1.15,2013-02-02 10:39:00,
2013-02-02 03:44:00,49.1,41.2,30.20,North,1,0.0,1.0,74,0.00,,,0.00,Wunderground v.1.15,2013-02-02 10:44:00,
2013-02-02 03:49:00,48.5,40.9,30.20,North,1,0.0,1.0,75,0.00,,,0.00,Wunderground v.1.15,2013-02-02 10:49:00,
2013-02-02 03:54:00,47.8,40.3,30.20,North,1,1.0,2.0,75,0.00,,,0.00,Wunderground v.1.15,2013-02-02 10:54:00,
2013-02-02 03:59:00,46.8,40.0,30.20,North,6,2.0,4.0,77,0.00,,,0.00,Wunderground v.1.15,2013-02-02 10:59:00,
2013-02-02 04:04:00,46.1,39.6,30.20,North,6,1.0,3.0,78,0.00,,,0.00,Wunderground v.1.15,2013-02-02 11:04:00,
2013-02-02 04:09:00,45.9,40.1,30.20,NNE,22,0.0,4.0,80,0.00,,,0.00,Wunderground v.1.15,2013-02-02 11:09:00,
2013-02-02 04:14:00,46.0,40.5,30.20,ENE,68,0.0,2.0,81,0.00,,,0.00,Wunderground v.1.15,2013-02-02 11:14:00,
2013-02-02 04:19:00,46.2,41.0,30.20,ENE,68,0.0,2.0,82,0.00,,,0.00,Wunderground v.1.15,2013-02-02 11:19:00,
2013-02-02 04:24:00,46.3,41.1,30.20,ESE,115,0.0,1.0,82,0.00,,,0.00,Wunderground v.1.15,2013-02-02 11:24:00,
2013-02-02 04:29:00,46.5,41.0,30.20,NE,49,1.0,3.0,81,0.00,,,0.00,Wunderground v.1.15,2013-02-02 11:29:00,
2013-02-02 04:34:00,46.7,41.2,30.20,East,80,0.0,2.0,81,0.00,,,0.00,Wunderground v.1.15,2013-02-02 11:34:00,
2013-02-02 04:39:00,46.7,41.2,30.20,NE,53,0.0,2.0,81,0.00,,,0.00,Wunderground v.1.15,2013-02-02 11:39:00,
2013-02-02 04:44:00,47.0,41.5,30.20,North,6,0.0,1.0,81,0.00,,,0.00,Wunderground v.1.15,2013-02-02 11:44:00,
2013-02-02 04:49:00,47.1,41.6,30.20,North,354,0.0,1.0,81,0.00,,,0.00,Wunderground v.1.15,2013-02-02 11:49:00,
2013-02-02 04:54:00,47.2,41.7,30.20,North,8,0.0,1.0,81,0.00,,,0.00,Wunderground v.1.15,2013-02-02 11:54:00,
2013-02-02 04:59:00,47.2,41.7,30.20,NNE,29,1.0,2.0,81,0.00,,,0.00,Wunderground v.1.15,2013-02-02 11:59:00,
2013-02-02 05:04:00,47.1,41.2,30.20,North,1,1.0,2.0,80,0.00,,,0.00,Wunderground v.1.15,2013-02-02 12:04:00,
2013-02-02 05:09:00,47.0,40.8,30.20,North,1,4.0,4.0,79,0.00,,,0.00,Wunderground v.1.15,2013-02-02 12:09:00,
2013-02-02 05:14:00,46.6,40.4,30.20,NNE,33,1.0,4.0,79,0.00,,,0.00,Wunderground v.1.15,2013-02-02 12:14:00,
2013-02-02 05:19:00,46.3,40.1,30.20,NNE,26,0.0,4.0,79,0.00,,,0.00,Wunderground v.1.15,2013-02-02 12:19:00,
2013-02-02 05:24:00,46.0,40.2,30.20,North,6,2.0,4.0,80,0.00,,,0.00,Wunderground v.1.15,2013-02-02 12:24:00,
2013-02-02 05:29:00,45.7,40.2,30.20,NNE,30,0.0,4.0,81,0.00,,,0.00,Wunderground v.1.15,2013-02-02 12:29:00,
2013-02-02 05:34:00,45.7,40.5,30.20,NNW,333,1.0,1.0,82,0.00,,,0.00,Wunderground v.1.15,2013-02-02 12:34:00,
2013-02-02 05:39:00,45.7,40.5,30.20,NNW,347,3.0,4.0,82,0.00,,,0.00,Wunderground v.1.15,2013-02-02 12:39:00,
2013-02-02 05:45:00,45.6,40.1,30.20,North,9,2.0,5.0,81,0.00,,,0.00,Wunderground v.1.15,2013-02-02 12:45:00,
2013-02-02 05:49:00,45.4,39.9,30.20,North,360,3.0,5.0,81,0.00,,,0.00,Wunderground v.1.15,2013-02-02 12:49:00,
2013-02-02 05:55:00,45.3,40.1,30.21,North,10,2.0,4.0,82,0.00,,,0.00,Wunderground v.1.15,2013-02-02 12:55:00,
2013-02-02 06:00:00,45.4,40.2,30.21,NNE,20,2.0,7.0,82,0.00,,,0.00,Wunderground v.1.15,2013-02-02 13:00:00,
2013-02-02 06:05:00,45.4,40.2,30.21,NNE,15,0.0,3.0,82,0.00,,,0.00,Wunderground v.1.15,2013-02-02 13:05:00,
2013-02-02 06:10:00,45.5,40.3,30.21,North,9,1.0,3.0,82,0.00,,,0.00,Wunderground v.1.15,2013-02-02 13:10:00,
2013-02-02 06:15:00,45.6,40.4,30.21,NNW,346,0.0,1.0,82,0.00,,,0.00,Wunderground v.1.15,2013-02-02 13:15:00,
2013-02-02 06:20:00,45.7,40.5,30.21,North,359,0.0,1.0,82,0.00,,,0.00,Wunderground v.1.15,2013-02-02 13:20:00,
2013-02-02 06:25:00,45.8,40.6,30.21,NNW,343,1.0,4.0,82,0.00,,,0.00,Wunderground v.1.15,2013-02-02 13:25:00,
2013-02-02 06:30:00,45.9,40.7,30.21,NE,42,1.0,1.0,82,0.00,,,0.00,Wunderground v.1.15,2013-02-02 13:30:00,
2013-02-02 06:35:00,46.0,40.8,30.21,NNE,32,1.0,4.0,82,0.00,,,0.00,Wunderground v.1.15,2013-02-02 13:35:00,
2013-02-02 06:40:00,46.0,40.5,30.21,NE,34,1.0,1.0,81,0.00,,,0.00,Wunderground v.1.15,2013-02-02 13:40:00,
2013-02-02 06:45:00,46.0,40.5,30.21,SW,225,1.0,2.0,81,0.00,,,0.00,Wunderground v.1.15,2013-02-02 13:45:00,
2013-02-02 06:50:00,46.0,40.5,30.21,NW,311,0.0,1.0,81,0.00,,,0.00,Wunderground v.1.15,2013-02-02 13:50:00,
2013-02-02 06:55:00,46.0,40.5,30.21,North,356,0.0,2.0,81,0.00,,,0.00,Wunderground v.1.15,2013-02-02 13:55:00,
2013-02-02 07:00:00,45.9,40.7,30.21,NNE,17,2.0,2.0,82,0.00,,,0.00,Wunderground v.1.15,2013-02-02 14:00:00,
2013-02-02 07:05:00,45.8,40.6,30.21,NNE,26,0.0,2.0,82,0.00,,,0.00,Wunderground v.1.15,2013-02-02 14:05:00,
2013-02-02 07:10:00,45.9,40.7,30.22,NNW,328,3.0,4.0,82,0.00,,,0.00,Wunderground v.1.15,2013-02-02 14:10:00,
2013-02-02 07:15:00,45.8,40.6,30.22,North,4,0.0,4.0,82,0.00,,,0.00,Wunderground v.1.15,2013-02-02 14:15:00,
2013-02-02 07:20:00,45.6,40.4,30.22,NNE,15,0.0,1.0,82,0.00,,,0.00,Wunderground v.1.15,2013-02-02 14:20:00,
2013-02-02 07:25:00,45.5,40.3,30.23,North,353,0.0,3.0,82,0.00,,,0.00,Wunderground v.1.15,2013-02-02 14:25:00,
2013-02-02 07:30:00,45.3,40.1,30.23,NNE,12,0.0,0.0,82,0.00,,,0.00,Wunderground v.1.15,2013-02-02 14:30:00,
2013-02-02 07:35:00,45.4,40.5,30.23,North,354,1.0,2.0,83,0.00,,,0.00,Wunderground v.1.15,2013-02-02 14:35:00,
2013-02-02 07:40:00,45.5,40.6,30.23,NNE,33,0.0,1.0,83,0.00,,,0.00,Wunderground v.1.15,2013-02-02 14:40:00,
2013-02-02 07:45:00,45.6,40.7,30.23,NNE,29,0.0,3.0,83,0.00,,,0.00,Wunderground v.1.15,2013-02-02 14:45:00,
2013-02-02 07:50:00,45.8,40.6,30.23,North,5,1.0,3.0,82,0.00,,,0.00,Wunderground v.1.15,2013-02-02 14:50:00,
2013-02-02 07:55:00,45.9,40.7,30.23,NW,325,0.0,3.0,82,0.00,,,0.00,Wunderground v.1.15,2013-02-02 14:55:00,
2013-02-02 08:01:00,46.0,40.8,30.24,NNE,29,0.0,3.0,82,0.00,,,0.00,Wunderground v.1.15,2013-02-02 15:01:00,
2013-02-02 08:06:00,46.2,40.7,30.24,NNE,33,0.0,3.0,81,0.00,,,0.00,Wunderground v.1.15,2013-02-02 15:06:00,
2013-02-02 08:11:00,46.4,40.9,30.24,NW,323,0.0,1.0,81,0.00,,,0.00,Wunderground v.1.15,2013-02-02 15:11:00,
2013-02-02 08:16:00,46.5,41.0,30.24,West,278,0.0,2.0,81,0.00,,,0.00,Wunderground v.1.15,2013-02-02 15:16:00,
2013-02-02 08:21:00,46.7,41.2,30.24,NNE,20,0.0,1.0,81,0.00,,,0.00,Wunderground v.1.15,2013-02-02 15:21:00,
2013-02-02 08:26:00,46.8,41.3,30.24,North,3,0.0,1.0,81,0.00,,,0.00,Wunderground v.1.15,2013-02-02 15:26:00,
2013-02-02 08:31:00,47.2,41.7,30.24,East,82,0.0,1.0,81,0.00,,,0.00,Wunderground v.1.15,2013-02-02 15:31:00,
2013-02-02 08:36:00,47.8,41.9,30.24,ESE,117,0.0,2.0,80,0.00,,,0.00,Wunderground v.1.15,2013-02-02 15:36:00,
2013-02-02 08:41:00,48.4,41.9,30.24,NE,37,2.0,2.0,78,0.00,,,0.00,Wunderground v.1.15,2013-02-02 15:41:00,
2013-02-02 08:46:00,48.9,42.0,30.24,NNW,340,0.0,2.0,77,0.00,,,0.00,Wunderground v.1.15,2013-02-02 15:46:00,
2013-02-02 08:51:00,49.3,42.1,30.24,East,85,1.0,1.0,76,0.00,,,0.00,Wunderground v.1.15,2013-02-02 15:51:00,
2013-02-02 08:56:00,49.5,42.2,30.25,NNW,330,0.0,1.0,76,0.00,,,0.00,Wunderground v.1.15,2013-02-02 15:56:00,
2013-02-02 09:01:00,49.7,42.4,30.25,NNE,33,0.0,3.0,76,0.00,,,0.00,Wunderground v.1.15,2013-02-02 16:01:00,
2013-02-02 09:06:00,49.8,42.2,30.25,North,11,1.0,3.0,75,0.00,,,0.00,Wunderground v.1.15,2013-02-02 16:06:00,
2013-02-02 09:11:00,50.0,42.4,30.25,NNW,340,1.0,1.0,75,0.00,,,0.00,Wunderground v.1.15,2013-02-02 16:11:00,
2013-02-02 09:16:00,50.4,42.4,30.25,NNE,22,2.0,4.0,74,0.00,,,0.00,Wunderground v.1.15,2013-02-02 16:16:00,
2013-02-02 09:21:00,50.9,42.9,30.25,North,11,0.0,2.0,74,0.00,,,0.00,Wunderground v.1.15,2013-02-02 16:21:00,
2013-02-02 09:26:00,51.6,42.9,30.26,NNE,15,4.0,5.0,72,0.00,,,0.00,Wunderground v.1.15,2013-02-02 16:26:00,
2013-02-02 09:31:00,52.1,43.0,30.25,NNE,29,2.0,3.0,71,0.00,,,0.00,Wunderground v.1.15,2013-02-02 16:31:00,
2013-02-02 09:36:00,52.5,43.0,30.25,ENE,64,1.0,3.0,70,0.00,,,0.00,Wunderground v.1.15,2013-02-02 16:36:00,
2013-02-02 09:41:00,53.0,42.7,30.25,ENE,58,1.0,4.0,68,0.00,,,0.00,Wunderground v.1.15,2013-02-02 16:41:00,
2013-02-02 09:46:00,53.4,42.7,30.26,NNE,29,4.0,4.0,67,0.00,,,0.00,Wunderground v.1.15,2013-02-02 16:46:00,
2013-02-02 09:51:00,54.0,42.9,30.25,NNW,340,1.0,4.0,66,0.00,,,0.00,Wunderground v.1.15,2013-02-02 16:51:00,
2013-02-02 09:56:00,54.6,42.7,30.26,NNW,333,2.0,8.0,64,0.00,,,0.00,Wunderground v.1.15,2013-02-02 16:56:00,
2013-02-02 10:01:00,55.2,43.2,30.26,NNE,25,7.0,7.0,64,0.00,,,0.00,Wunderground v.1.15,2013-02-02 17:01:00,
2013-02-02 10:06:00,55.8,42.5,30.26,North,349,6.0,10.0,61,0.00,,,0.00,Wunderground v.1.15,2013-02-02 17:06:00,
2013-02-02 10:11:00,56.5,42.8,30.26,NNE,27,4.0,6.0,60,0.00,,,0.00,Wunderground v.1.15,2013-02-02 17:11:00,
2013-02-02 10:16:00,56.9,43.2,30.26,NNE,13,6.0,8.0,60,0.00,,,0.00,Wunderground v.1.15,2013-02-02 17:16:00,
2013-02-02 10:21:00,57.4,42.7,30.26,North,356,10.0,10.0,58,0.00,,,0.00,Wunderground v.1.15,2013-02-02 17:21:00,
2013-02-02 10:26:00,57.9,42.8,30.26,North,5,3.0,10.0,57,0.00,,,0.00,Wunderground v.1.15,2013-02-02 17:26:00,
2013-02-02 10:31:00,58.4,42.3,30.26,NNE,30,3.0,6.0,55,0.00,,,0.00,Wunderground v.1.15,2013-02-02 17:31:00,
2013-02-02 10:36:00,58.9,41.8,30.27,North,354,8.0,10.0,53,0.00,,,0.00,Wunderground v.1.15,2013-02-02 17:36:00,
2013-02-02 10:41:00,59.5,41.9,30.26,NNW,340,9.0,9.0,52,0.00,,,0.00,Wunderground v.1.15,2013-02-02 17:41:00,
2013-02-02 10:46:00,60.0,42.3,30.26,NNE,25,2.0,10.0,52,0.00,,,0.00,Wunderground v.1.15,2013-02-02 17:46:00,
2013-02-02 10:52:00,60.5,41.8,30.26,NNW,340,3.0,10.0,50,0.00,,,0.00,Wunderground v.1.15,2013-02-02 17:52:00,
2013-02-02 10:56:00,61.0,42.2,30.26,North,359,1.0,11.0,50,0.00,,,0.00,Wunderground v.1.15,2013-02-02 17:56:00,
2013-02-02 11:01:00,61.6,42.8,30.26,NNW,339,3.0,6.0,50,0.00,,,0.00,Wunderground v.1.15,2013-02-02 18:01:00,
2013-02-02 11:07:00,62.1,43.2,30.26,North,356,2.0,6.0,50,0.00,,,0.00,Wunderground v.1.15,2013-02-02 18:07:00,
2013-02-02 11:12:00,62.6,43.2,30.26,NE,46,0.0,3.0,49,0.00,,,0.00,Wunderground v.1.15,2013-02-02 18:12:00,
2013-02-02 11:17:00,62.9,43.4,30.26,NE,34,2.0,5.0,49,0.00,,,0.00,Wunderground v.1.15,2013-02-02 18:17:00,
2013-02-02 11:22:00,63.5,43.4,30.26,North,360,4.0,6.0,48,0.00,,,0.00,Wunderground v.1.15,2013-02-02 18:22:00,
2013-02-02 11:27:00,63.2,42.6,30.26,ENE,70,2.0,8.0,47,0.00,,,0.00,Wunderground v.1.15,2013-02-02 18:27:00,
2013-02-02 11:32:00,63.4,42.8,30.26,WNW,288,0.0,6.0,47,0.00,,,0.00,Wunderground v.1.15,2013-02-02 18:32:00,
2013-02-02 11:37:00,63.7,42.5,30.26,NNE,27,3.0,8.0,46,0.00,,,0.00,Wunderground v.1.15,2013-02-02 18:37:00,
2013-02-02 11:42:00,63.9,42.7,30.26,NE,54,4.0,8.0,46,0.00,,,0.00,Wunderground v.1.15,2013-02-02 18:42:00,
2013-02-02 11:47:00,64.2,41.8,30.25,NE,37,1.0,8.0,44,0.00,,,0.00,Wunderground v.1.15,2013-02-02 18:47:00,
2013-02-02 11:52:00,64.7,42.3,30.25,East,101,2.0,5.0,44,0.00,,,0.00,Wunderground v.1.15,2013-02-02 18:52:00,
2013-02-02 11:57:00,65.2,42.1,30.25,NNE,32,3.0,5.0,43,0.00,,,0.00,Wunderground v.1.15,2013-02-02 18:57:00,
2013-02-02 12:02:00,65.7,41.3,30.24,NE,47,3.0,4.0,41,0.00,,,0.00,Wunderground v.1.15,2013-02-02 19:02:00,
2013-02-02 12:07:00,65.9,40.9,30.24,East,100,4.0,8.0,40,0.00,,,0.00,Wunderground v.1.15,2013-02-02 19:07:00,
2013-02-02 12:12:00,66.3,40.6,30.24,West,274,5.0,5.0,39,0.00,,,0.00,Wunderground v.1.15,2013-02-02 19:12:00,
2013-02-02 12:17:00,66.5,40.8,30.24,NE,47,1.0,10.0,39,0.00,,,0.00,Wunderground v.1.15,2013-02-02 19:17:00,
2013-02-02 12:23:00,66.8,40.4,30.24,NW,304,1.0,4.0,38,0.00,,,0.00,Wunderground v.1.15,2013-02-02 19:23:00,
2013-02-02 12:28:00,67.4,38.8,30.23,ENE,72,2.0,5.0,35,0.00,,,0.00,Wunderground v.1.15,2013-02-02 19:28:00,
2013-02-02 12:33:00,68.0,37.8,30.22,SE,140,3.0,7.0,33,0.00,,,0.00,Wunderground v.1.15,2013-02-02 19:33:00,
2013-02-02 12:38:00,68.3,38.8,30.22,NNE,30,1.0,10.0,34,0.00,,,0.00,Wunderground v.1.15,2013-02-02 19:38:00,
2013-02-02 12:43:00,68.8,38.5,30.22,NNW,336,5.0,5.0,33,0.00,,,0.00,Wunderground v.1.15,2013-02-02 19:43:00,
2013-02-02 12:48:00,68.6,39.1,30.22,SW,231,2.0,13.0,34,0.00,,,0.00,Wunderground v.1.15,2013-02-02 19:48:00,
2013-02-02 12:53:00,69.0,39.4,30.21,ENE,58,3.0,6.0,34,0.00,,,0.00,Wunderground v.1.15,2013-02-02 19:53:00,
2013-02-02 12:58:00,69.3,38.9,30.21,NE,37,4.0,6.0,33,0.00,,,0.00,Wunderground v.1.15,2013-02-02 19:58:00,
2013-02-02 13:03:00,69.6,38.4,30.20,ENE,75,2.0,9.0,32,0.00,,,0.00,Wunderground v.1.15,2013-02-02 20:03:00,
2013-02-02 13:08:00,69.6,37.6,30.20,NNE,15,5.0,11.0,31,0.00,,,0.00,Wunderground v.1.15,2013-02-02 20:08:00,
2013-02-02 13:13:00,69.4,38.2,30.20,NNW,342,1.0,10.0,32,0.00,,,0.00,Wunderground v.1.15,2013-02-02 20:13:00,
2013-02-02 13:18:00,69.6,37.6,30.19,ENE,69,1.0,10.0,31,0.00,,,0.00,Wunderground v.1.15,2013-02-02 20:18:00,
2013-02-02 13:23:00,69.8,38.6,30.19,WSW,243,2.0,8.0,32,0.00,,,0.00,Wunderground v.1.15,2013-02-02 20:23:00,
2013-02-02 13:28:00,70.0,38.0,30.19,WSW,254,2.0,8.0,31,0.00,,,0.00,Wunderground v.1.15,2013-02-02 20:28:00,
2013-02-02 13:33:00,70.0,39.6,30.18,NNE,20,3.0,5.0,33,0.00,,,0.00,Wunderground v.1.15,2013-02-02 20:33:00,
2013-02-02 13:38:00,70.3,37.4,30.18,West,259,1.0,5.0,30,0.00,,,0.00,Wunderground v.1.15,2013-02-02 20:38:00,
2013-02-02 13:43:00,70.6,37.6,30.18,NE,41,1.0,4.0,30,0.00,,,0.00,Wunderground v.1.15,2013-02-02 20:43:00,
2013-02-02 13:48:00,71.1,37.2,30.18,NW,316,2.0,4.0,29,0.00,,,0.00,Wunderground v.1.15,2013-02-02 20:48:00,
2013-02-02 13:53:00,71.6,38.5,30.18,NNW,342,1.0,5.0,30,0.00,,,0.00,Wunderground v.1.15,2013-02-02 20:53:00,
2013-02-02 13:58:00,71.9,37.9,30.17,NE,49,4.0,5.0,29,0.00,,,0.00,Wunderground v.1.15,2013-02-02 20:58:00,
2013-02-02 14:03:00,71.7,38.6,30.17,NW,316,2.0,9.0,30,0.00,,,0.00,Wunderground v.1.15,2013-02-02 21:03:00,
2013-02-02 14:08:00,71.8,37.8,30.17,WNW,282,1.0,9.0,29,0.00,,,0.00,Wunderground v.1.15,2013-02-02 21:08:00,
2013-02-02 14:13:00,71.9,37.0,30.17,West,274,3.0,7.0,28,0.00,,,0.00,Wunderground v.1.15,2013-02-02 21:13:00,
2013-02-02 14:18:00,71.7,37.7,30.17,NW,326,3.0,11.0,29,0.00,,,0.00,Wunderground v.1.15,2013-02-02 21:18:00,
2013-02-02 14:23:00,71.8,37.8,30.16,NW,326,1.0,8.0,29,0.00,,,0.00,Wunderground v.1.15,2013-02-02 21:23:00,
2013-02-02 14:28:00,72.0,38.0,30.16,ENE,77,1.0,8.0,29,0.00,,,0.00,Wunderground v.1.15,2013-02-02 21:28:00,
2013-02-02 14:33:00,72.4,38.3,30.16,WNW,298,0.0,4.0,29,0.00,,,0.00,Wunderground v.1.15,2013-02-02 21:33:00,
2013-02-02 14:38:00,72.7,37.7,30.16,NNE,27,0.0,5.0,28,0.00,,,0.00,Wunderground v.1.15,2013-02-02 21:38:00,
2013-02-02 14:43:00,72.4,38.3,30.16,East,98,3.0,10.0,29,0.00,,,0.00,Wunderground v.1.15,2013-02-02 21:43:00,
2013-02-02 14:48:00,72.4,37.4,30.15,ESE,122,1.0,10.0,28,0.00,,,0.00,Wunderground v.1.15,2013-02-02 21:48:00,
2013-02-02 14:54:00,72.5,36.6,30.15,East,81,2.0,11.0,27,0.00,,,0.00,Wunderground v.1.15,2013-02-02 21:54:00,
2013-02-02 14:59:00,72.5,36.6,30.15,North,349,3.0,11.0,27,0.00,,,0.00,Wunderground v.1.15,2013-02-02 21:59:00,
2013-02-02 15:04:00,72.6,37.6,30.15,NW,325,0.0,9.0,28,0.00,,,0.00,Wunderground v.1.15,2013-02-02 22:04:00,
2013-02-02 15:09:00,72.8,37.8,30.15,NE,48,0.0,10.0,28,0.00,,,0.00,Wunderground v.1.15,2013-02-02 22:09:00,
2013-02-02 15:14:00,72.9,37.9,30.15,WNW,295,1.0,7.0,28,0.00,,,0.00,Wunderground v.1.15,2013-02-02 22:14:00,
2013-02-02 15:19:00,72.9,37.9,30.14,ENE,72,3.0,10.0,28,0.00,,,0.00,Wunderground v.1.15,2013-02-02 22:19:00,
2013-02-02 15:24:00,72.8,37.8,30.14,ESE,117,2.0,6.0,28,0.00,,,0.00,Wunderground v.1.15,2013-02-02 22:24:00,
2013-02-02 15:29:00,72.9,38.8,30.14,East,88,3.0,9.0,29,0.00,,,0.00,Wunderground v.1.15,2013-02-02 22:29:00,
2013-02-02 15:34:00,72.8,38.7,30.14,WNW,284,1.0,9.0,29,0.00,,,0.00,Wunderground v.1.15,2013-02-02 22:34:00,
2013-02-02 15:39:00,73.0,38.0,30.14,NNE,15,4.0,9.0,28,0.00,,,0.00,Wunderground v.1.15,2013-02-02 22:39:00,
2013-02-02 15:44:00,73.1,38.9,30.14,North,6,1.0,7.0,29,0.00,,,0.00,Wunderground v.1.15,2013-02-02 22:44:00,
2013-02-02 15:49:00,73.3,37.3,30.13,East,89,3.0,7.0,27,0.00,,,0.00,Wunderground v.1.15,2013-02-02 22:49:00,
2013-02-02 15:54:00,73.4,38.3,30.13,East,87,1.0,4.0,28,0.00,,,0.00,Wunderground v.1.15,2013-02-02 22:54:00,
2013-02-02 15:59:00,73.5,39.3,30.13,NNW,346,0.0,7.0,29,0.00,,,0.00,Wunderground v.1.15,2013-02-02 22:59:00,
2013-02-02 16:04:00,73.4,39.2,30.13,NNW,339,2.0,9.0,29,0.00,,,0.00,Wunderground v.1.15,2013-02-02 23:04:00,
2013-02-02 16:09:00,73.0,38.9,30.13,East,99,1.0,10.0,29,0.00,,,0.00,Wunderground v.1.15,2013-02-02 23:09:00,
2013-02-02 16:14:00,73.3,39.1,30.13,NE,51,0.0,4.0,29,0.00,,,0.00,Wunderground v.1.15,2013-02-02 23:14:00,
2013-02-02 16:19:00,73.5,39.3,30.13,ENE,76,0.0,7.0,29,0.00,,,0.00,Wunderground v.1.15,2013-02-02 23:19:00,
2013-02-02 16:24:00,73.5,39.3,30.13,ENE,63,3.0,6.0,29,0.00,,,0.00,Wunderground v.1.15,2013-02-02 23:24:00,
2013-02-02 16:29:00,73.7,39.5,30.13,NNW,340,0.0,6.0,29,0.00,,,0.00,Wunderground v.1.15,2013-02-02 23:29:00,
2013-02-02 16:34:00,73.9,39.6,30.13,NE,46,0.0,5.0,29,0.00,,,0.00,Wunderground v.1.15,2013-02-02 23:34:00,
2013-02-02 16:39:00,74.0,39.7,30.13,North,1,3.0,5.0,29,0.00,,,0.00,Wunderground v.1.15,2013-02-02 23:39:00,
2013-02-02 16:44:00,73.8,39.5,30.13,NNW,333,1.0,2.0,29,0.00,,,0.00,Wunderground v.1.15,2013-02-02 23:44:00,
2013-02-02 16:49:00,73.7,40.3,30.13,NE,41,1.0,2.0,30,0.00,,,0.00,Wunderground v.1.15,2013-02-02 23:49:00,
2013-02-02 16:54:00,73.5,39.3,30.12,WNW,301,0.0,2.0,29,0.00,,,0.00,Wunderground v.1.15,2013-02-02 23:54:00,
2013-02-02 16:59:00,73.3,40.0,30.13,NE,53,1.0,4.0,30,0.00,,,0.00,Wunderground v.1.15,2013-02-02 23:59:00,
2013-02-02 17:04:00,73.5,39.3,30.13,NE,34,1.0,5.0,29,0.00,,,0.00,Wunderground v.1.15,2013-02-03 00:04:00,
2013-02-02 17:09:00,73.3,39.1,30.13,North,10,2.0,5.0,29,0.00,,,0.00,Wunderground v.1.15,2013-02-03 00:09:00,
2013-02-02 17:14:00,72.7,39.5,30.13,NNE,25,3.0,7.0,30,0.00,,,0.00,Wunderground v.1.15,2013-02-03 00:14:00,
2013-02-02 17:19:00,71.9,38.8,30.13,NNW,344,2.0,7.0,30,0.00,,,0.00,Wunderground v.1.15,2013-02-03 00:19:00,
2013-02-02 17:24:00,71.0,38.8,30.13,North,6,4.0,5.0,31,0.00,,,0.00,Wunderground v.1.15,2013-02-03 00:24:00,
2013-02-02 17:29:00,70.2,38.9,30.13,NNW,346,2.0,5.0,32,0.00,,,0.00,Wunderground v.1.15,2013-02-03 00:29:00,
2013-02-02 17:34:00,69.5,38.3,30.13,North,1,2.0,4.0,32,0.00,,,0.00,Wunderground v.1.15,2013-02-03 00:34:00,
2013-02-02 17:39:00,69.1,38.8,30.13,NNE,12,0.0,4.0,33,0.00,,,0.00,Wunderground v.1.15,2013-02-03 00:39:00,
2013-02-02 17:44:00,68.6,39.1,30.13,NNE,20,0.0,3.0,34,0.00,,,0.00,Wunderground v.1.15,2013-02-03 00:44:00,
2013-02-02 17:49:00,68.2,38.0,30.13,NNE,18,0.0,3.0,33,0.00,,,0.00,Wunderground v.1.15,2013-02-03 00:49:00,
2013-02-02 17:54:00,67.9,38.5,30.13,NNE,17,0.0,1.0,34,0.00,,,0.00,Wunderground v.1.15,2013-02-03 00:54:00,
2013-02-02 17:59:00,67.5,38.1,30.13,NNE,18,0.0,1.0,34,0.00,,,0.00,Wunderground v.1.15,2013-02-03 00:59:00,
2013-02-02 18:04:00,67.0,39.1,30.13,NNE,17,0.0,0.0,36,0.00,,,0.00,Wunderground v.1.15,2013-02-03 01:04:00,
2013-02-02 18:09:00,66.6,38.8,30.13,NNE,18,0.0,1.0,36,0.00,,,0.00,Wunderground v.1.15,2013-02-03 01:09:00,
2013-02-02 18:14:00,66.3,39.2,30.13,NNE,18,0.0,1.0,37,0.00,,,0.00,Wunderground v.1.15,2013-02-03 01:14:00,
2013-02-02 18:19:00,66.2,39.8,30.13,NNE,18,0.0,1.0,38,0.00,,,0.00,Wunderground v.1.15,2013-02-03 01:19:00,
2013-02-02 18:24:00,66.1,39.7,30.13,ENE,59,0.0,1.0,38,0.00,,,0.00,Wunderground v.1.15,2013-02-03 01:24:00,
2013-02-02 18:29:00,65.9,40.2,30.13,ENE,60,0.0,1.0,39,0.00,,,0.00,Wunderground v.1.15,2013-02-03 01:29:00,
2013-02-02 18:34:00,65.5,40.5,30.13,ENE,62,0.0,1.0,40,0.00,,,0.00,Wunderground v.1.15,2013-02-03 01:34:00,
2013-02-02 18:39:00,65.2,40.9,30.13,ENE,72,1.0,2.0,41,0.00,,,0.00,Wunderground v.1.15,2013-02-03 01:39:00,
2013-02-02 18:45:00,65.2,40.9,30.13,ESE,103,1.0,3.0,41,0.00,,,0.00,Wunderground v.1.15,2013-02-03 01:45:00,
2013-02-02 18:50:00,65.2,40.9,30.13,ENE,73,2.0,3.0,41,0.00,,,0.00,Wunderground v.1.15,2013-02-03 01:50:00,
2013-02-02 18:55:00,65.4,40.4,30.13,ENE,74,1.0,2.0,40,0.00,,,0.00,Wunderground v.1.15,2013-02-03 01:55:00,
2013-02-02 19:00:00,65.5,40.5,30.12,ENE,70,1.0,2.0,40,0.00,,,0.00,Wunderground v.1.15,2013-02-03 02:00:00,
2013-02-02 19:05:00,65.6,40.0,30.13,East,96,0.0,2.0,39,0.00,,,0.00,Wunderground v.1.15,2013-02-03 02:05:00,
2013-02-02 19:10:00,65.7,40.1,30.12,East,84,1.0,2.0,39,0.00,,,0.00,Wunderground v.1.15,2013-02-03 02:10:00,
2013-02-02 19:15:00,65.4,41.1,30.13,ESE,110,1.0,1.0,41,0.00,,,0.00,Wunderground v.1.15,2013-02-03 02:15:00,
2013-02-02 19:20:00,64.9,40.6,30.13,ESE,104,1.0,1.0,41,0.00,,,0.00,Wunderground v.1.15,2013-02-03 02:20:00,
2013-02-02 19:25:00,64.6,41.0,30.13,East,91,0.0,2.0,42,0.00,,,0.00,Wunderground v.1.15,2013-02-03 02:25:00,
2013-02-02 19:30:00,64.3,41.9,30.13,East,94,0.0,1.0,44,0.00,,,0.00,Wunderground v.1.15,2013-02-03 02:30:00,
2013-02-02 19:35:00,63.8,41.5,30.13,ESE,105,1.0,2.0,44,0.00,,,0.00,Wunderground v.1.15,2013-02-03 02:35:00,
2013-02-02 19:40:00,63.6,41.3,30.13,ESE,105,2.0,2.0,44,0.00,,,0.00,Wunderground v.1.15,2013-02-03 02:40:00,
2013-02-02 19:45:00,63.6,41.3,30.13,ENE,68,2.0,3.0,44,0.00,,,0.00,Wunderground v.1.15,2013-02-03 02:45:00,
2013-02-02 19:50:00,63.7,41.4,30.13,East,98,0.0,2.0,44,0.00,,,0.00,Wunderground v.1.15,2013-02-03 02:50:00,
2013-02-02 19:55:00,63.7,40.8,30.13,East,93,1.0,2.0,43,0.00,,,0.00,Wunderground v.1.15,2013-02-03 02:55:00,
2013-02-02 20:00:00,63.7,40.8,30.13,East,86,1.0,1.0,43,0.00,,,0.00,Wunderground v.1.15,2013-02-03 03:00:00,
2013-02-02 20:05:00,63.3,41.6,30.13,East,94,1.0,1.0,45,0.00,,,0.00,Wunderground v.1.15,2013-02-03 03:05:00,
2013-02-02 20:10:00,62.9,42.9,30.13,East,91,0.0,1.0,48,0.00,,,0.00,Wunderground v.1.15,2013-02-03 03:10:00,
2013-02-02 20:15:00,61.3,42.0,30.13,East,92,0.0,1.0,49,0.00,,,0.00,Wunderground v.1.15,2013-02-03 03:15:00,
2013-02-02 20:20:00,60.5,42.3,30.13,East,91,0.0,0.0,51,0.00,,,0.00,Wunderground v.1.15,2013-02-03 03:20:00,
2013-02-02 20:25:00,59.9,41.7,30.13,East,88,0.0,0.0,51,0.00,,,0.00,Wunderground v.1.15,2013-02-03 03:25:00,
2013-02-02 20:30:00,59.7,42.0,30.13,East,88,0.0,0.0,52,0.00,,,0.00,Wunderground v.1.15,2013-02-03 03:30:00,
2013-02-02 20:35:00,59.5,42.8,30.13,ESE,109,0.0,1.0,54,0.00,,,0.00,Wunderground v.1.15,2013-02-03 03:35:00,
2013-02-02 20:40:00,59.6,42.4,30.14,ESE,114,1.0,1.0,53,0.00,,,0.00,Wunderground v.1.15,2013-02-03 03:40:00,
2013-02-02 20:46:00,60.2,42.5,30.13,ESE,114,0.0,1.0,52,0.00,,,0.00,Wunderground v.1.15,2013-02-03 03:46:00,
2013-02-02 20:51:00,60.6,41.8,30.14,ESE,117,1.0,1.0,50,0.00,,,0.00,Wunderground v.1.15,2013-02-03 03:51:00,
2013-02-02 20:56:00,60.9,41.6,30.14,ESE,122,1.0,1.0,49,0.00,,,0.00,Wunderground v.1.15,2013-02-03 03:56:00,
2013-02-02 21:01:00,61.2,41.3,30.14,ESE,118,1.0,2.0,48,0.00,,,0.00,Wunderground v.1.15,2013-02-03 04:01:00,
2013-02-02 21:06:00,61.5,41.1,30.14,ESE,115,1.0,2.0,47,0.00,,,0.00,Wunderground v.1.15,2013-02-03 04:06:00,
2013-02-02 21:11:00,61.6,41.7,30.14,ESE,119,0.0,1.0,48,0.00,,,0.00,Wunderground v.1.15,2013-02-03 04:11:00,
2013-02-02 21:16:00,61.3,42.5,30.14,West,270,2.0,2.0,50,0.00,,,0.00,Wunderground v.1.15,2013-02-03 04:16:00,
2013-02-02 21:21:00,58.9,43.7,30.14,West,262,0.0,1.0,57,0.00,,,0.00,Wunderground v.1.15,2013-02-03 04:21:00,
2013-02-02 21:26:00,58.4,43.2,30.14,West,262,0.0,1.0,57,0.00,,,0.00,Wunderground v.1.15,2013-02-03 04:26:00,
2013-02-02 21:31:00,58.6,42.9,30.14,West,262,0.0,0.0,56,0.00,,,0.00,Wunderground v.1.15,2013-02-03 04:31:00,
2013-02-02 21:36:00,58.4,43.2,30.14,West,262,0.0,0.0,57,0.00,,,0.00,Wunderground v.1.15,2013-02-03 04:36:00,
2013-02-02 21:41:00,57.9,43.2,30.14,West,262,0.0,0.0,58,0.00,,,0.00,Wunderground v.1.15,2013-02-03 04:41:00,
2013-02-02 21:46:00,57.6,42.9,30.14,West,262,0.0,1.0,58,0.00,,,0.00,Wunderground v.1.15,2013-02-03 04:46:00,
2013-02-02 21:51:00,57.5,41.9,30.14,West,262,0.0,0.0,56,0.00,,,0.00,Wunderground v.1.15,2013-02-03 04:51:00,
2013-02-02 21:56:00,57.6,42.5,30.14,West,262,0.0,0.0,57,0.00,,,0.00,Wunderground v.1.15,2013-02-03 04:56:00,
2013-02-02 22:00:00,57.6,42.5,30.14,West,262,0.0,0.0,57,0.00,,,0.00,Wunderground v.1.15,2013-02-03 05:00:00,
2013-02-02 22:05:00,57.6,43.4,30.14,West,262,0.0,0.0,59,0.00,,,0.00,Wunderground v.1.15,2013-02-03 05:05:00,
2013-02-02 22:10:00,57.4,43.2,30.14,West,262,0.0,0.0,59,0.00,,,0.00,Wunderground v.1.15,2013-02-03 05:10:00,
2013-02-02 22:15:00,57.1,42.0,30.14,West,262,0.0,0.0,57,0.00,,,0.00,Wunderground v.1.15,2013-02-03 05:15:00,
2013-02-02 22:20:00,57.2,42.5,30.14,NW,304,0.0,1.0,58,0.00,,,0.00,Wunderground v.1.15,2013-02-03 05:20:00,
2013-02-02 22:25:00,58.0,42.8,30.14,East,79,1.0,1.0,57,0.00,,,0.00,Wunderground v.1.15,2013-02-03 05:25:00,
2013-02-02 22:30:00,58.7,43.0,30.14,ENE,70,1.0,1.0,56,0.00,,,0.00,Wunderground v.1.15,2013-02-03 05:30:00,
2013-02-02 22:35:00,59.2,43.0,30.14,ENE,70,0.0,2.0,55,0.00,,,0.00,Wunderground v.1.15,2013-02-03 05:35:00,
2013-02-02 22:40:00,59.5,43.3,30.14,ENE,73,0.0,1.0,55,0.00,,,0.00,Wunderground v.1.15,2013-02-03 05:40:00,
2013-02-02 22:46:00,59.5,42.8,30.14,ENE,70,0.0,1.0,54,0.00,,,0.00,Wunderground v.1.15,2013-02-03 05:46:00,
2013-02-02 22:51:00,59.9,42.7,30.14,ENE,78,0.0,1.0,53,0.00,,,0.00,Wunderground v.1.15,2013-02-03 05:51:00,
2013-02-02 22:55:00,60.1,42.4,30.14,ENE,75,1.0,1.0,52,0.00,,,0.00,Wunderground v.1.15,2013-02-03 05:55:00,
2013-02-02 23:01:00,60.2,43.0,30.14,ENE,59,0.0,1.0,53,0.00,,,0.00,Wunderground v.1.15,2013-02-03 06:01:00,
2013-02-02 23:06:00,58.3,43.1,30.14,WNW,290,2.0,3.0,57,0.00,,,0.00,Wunderground v.1.15,2013-02-03 06:06:00,
2013-02-02 23:11:00,56.7,43.0,30.14,WNW,290,0.0,1.0,60,0.00,,,0.00,Wunderground v.1.15,2013-02-03 06:11:00,
2013-02-02 23:16:00,56.2,42.5,30.14,WNW,288,0.0,1.0,60,0.00,,,0.00,Wunderground v.1.15,2013-02-03 06:16:00,
2013-02-02 23:21:00,56.3,43.0,30.14,WNW,288,0.0,0.0,61,0.00,,,0.00,Wunderground v.1.15,2013-02-03 06:21:00,
2013-02-02 23:26:00,56.2,42.9,30.14,WNW,288,0.0,1.0,61,0.00,,,0.00,Wunderground v.1.15,2013-02-03 06:26:00,
2013-02-02 23:31:00,56.1,43.3,30.14,WNW,288,0.0,0.0,62,0.00,,,0.00,Wunderground v.1.15,2013-02-03 06:31:00,
2013-02-02 23:36:00,56.0,43.2,30.13,WNW,288,0.0,0.0,62,0.00,,,0.00,Wunderground v.1.15,2013-02-03 06:36:00,
2013-02-02 23:41:00,56.1,43.3,30.13,SSW,210,0.0,0.0,62,0.00,,,0.00,Wunderground v.1.15,2013-02-03 06:41:00,
2013-02-02 23:46:00,56.2,43.8,30.13,SE,141,0.0,0.0,63,0.00,,,0.00,Wunderground v.1.15,2013-02-03 06:46:00,
2013-02-02 23:51:00,56.1,44.1,30.13,SE,141,0.0,0.0,64,0.00,,,0.00,Wunderground v.1.15,2013-02-03 06:51:00,
2013-02-02 23:56:00,56.0,43.6,30.13,ESE,122,0.0,1.0,63,0.00,,,0.00,Wunderground v.1.15,2013-02-03 06:56:00,